KMJQ

Jackson Municipal Airport

Jackson, Minnesota, USA
METAR KMJQ 221735Z AUTO 14004KT 10SM CLR 22/15 A3005 RMK AO2
Observed Flight Rules
May-22 @ 17:35 UTC (21 minutes ago) Visual Flight Rules
Wind Visibility Clouds
140° at 4 knots 10 miles
  • Clear skies
Temperatures Readings
Current 22°C / 72°F
Dewpoint 15°C / 59°F
Humidity 65%
Altimeter 30.05" Hg
Pressure 1018 hPa
Elevation 441
METAR KMJQ 221735Z AUTO 14004KT 10SM CLR 22/15 A3005 RMK AO2
Observed Flight Rules
May-22 @ 17:35 UTC
(21 minutes ago)
VFR
Wind Visibility
140° at 4 knots 10 miles
Clouds
  • Clear skies
Temperature Dewpoint
22°C / 72°F 15°C / 59°F
Humidity Altimeter Pressure
65% 30.05" Hg 1018 hPa